createdAt,value
2018-04-08T00:01:04.919Z,83.40
2018-04-08T00:03:33.528Z,83.60
2018-04-08T00:06:02.198Z,84.00
2018-04-08T00:08:30.944Z,84.00
2018-04-08T00:10:59.577Z,84.40
2018-04-08T00:13:28.214Z,85.20
2018-04-08T00:15:56.946Z,85.00
2018-04-08T00:18:26.376Z,85.70
2018-04-08T00:20:55.057Z,85.70
2018-04-08T00:23:25.377Z,85.60
2018-04-08T00:25:54.340Z,85.50
2018-04-08T00:28:23.054Z,85.70
2018-04-08T00:30:51.594Z,86.10
2018-04-08T00:33:20.207Z,85.60
2018-04-08T00:35:48.890Z,85.00
2018-04-08T00:38:17.585Z,85.50
2018-04-08T00:40:46.224Z,85.20
2018-04-08T00:43:14.842Z,85.80
2018-04-08T00:45:43.458Z,85.50
2018-04-08T00:48:12.035Z,85.40
2018-04-08T00:50:40.596Z,85.50
2018-04-08T00:53:09.226Z,85.10
2018-04-08T00:55:38.044Z,85.10
2018-04-08T00:58:07.173Z,85.60
2018-04-08T01:00:36.752Z,85.20
2018-04-08T01:03:06.151Z,84.80
2018-04-08T01:05:35.350Z,84.80
2018-04-08T01:08:03.960Z,84.90
2018-04-08T01:10:32.610Z,85.90
2018-04-08T01:13:01.211Z,85.90
2018-04-08T01:15:29.822Z,85.20
2018-04-08T01:17:59.363Z,85.30
2018-04-08T01:20:27.994Z,85.30
2018-04-08T01:22:56.644Z,85.30
2018-04-08T01:25:26.426Z,85.30
2018-04-08T01:27:55.750Z,85.30
2018-04-08T01:30:24.788Z,85.40
2018-04-08T01:32:53.415Z,85.30
2018-04-08T01:35:22.777Z,86.30
2018-04-08T01:37:51.461Z,86.30
2018-04-08T01:40:20.061Z,87.10
2018-04-08T01:42:48.704Z,86.90
2018-04-08T01:45:17.385Z,86.60
2018-04-08T01:47:46.017Z,86.20
2018-04-08T01:50:14.691Z,86.30
2018-04-08T01:52:44.081Z,85.10
2018-04-08T01:55:12.579Z,85.10
2018-04-08T01:57:42.272Z,85.20
2018-04-08T02:00:11.616Z,85.20
2018-04-08T02:02:40.585Z,85.70
2018-04-08T02:05:09.189Z,85.80
2018-04-08T02:07:38.674Z,86.60
2018-04-08T02:10:07.473Z,86.60
2018-04-08T02:12:36.065Z,86.30
2018-04-08T02:15:04.672Z,87.10
2018-04-08T02:17:33.293Z,86.90
2018-04-08T02:20:01.906Z,87.90
2018-04-08T02:22:30.554Z,87.80
2018-04-08T02:24:59.905Z,87.40
2018-04-08T02:27:28.605Z,87.40
2018-04-08T02:29:57.307Z,87.80
2018-04-08T02:32:26.422Z,87.50
2018-04-08T02:34:55.419Z,87.20
2018-04-08T02:37:24.773Z,87.70
2018-04-08T02:39:53.358Z,87.60
2018-04-08T02:42:21.981Z,87.80
2018-04-08T02:44:50.554Z,87.50
2018-04-08T02:47:19.867Z,86.90
2018-04-08T02:49:48.416Z,86.90
2018-04-08T02:52:17.104Z,86.90
2018-04-08T02:54:45.902Z,86.40
2018-04-08T02:57:14.746Z,86.00
2018-04-08T02:59:43.314Z,85.50
2018-04-08T03:02:12.499Z,85.90
2018-04-08T03:04:41.780Z,86.30
2018-04-08T03:07:10.456Z,86.10
2018-04-08T03:09:39.827Z,87.40
2018-04-08T03:12:08.357Z,87.40
2018-04-08T03:14:36.916Z,87.60
2018-04-08T03:17:05.608Z,88.10
2018-04-08T03:19:34.220Z,88.50
2018-04-08T03:22:02.810Z,88.60
2018-04-08T03:24:32.291Z,88.70
2018-04-08T03:27:00.865Z,88.70
2018-04-08T03:29:29.588Z,88.80
2018-04-08T03:31:58.317Z,88.20
2018-04-08T03:34:27.400Z,88.50
2018-04-08T03:36:56.943Z,88.50
2018-04-08T03:39:25.780Z,88.50
2018-04-08T03:41:54.428Z,89.20
2018-04-08T03:44:22.974Z,89.90
2018-04-08T03:46:51.698Z,89.60
2018-04-08T03:49:20.230Z,88.80
2018-04-08T03:51:48.871Z,88.10
2018-04-08T03:54:17.614Z,88.10
2018-04-08T03:56:46.286Z,86.80
2018-04-08T03:59:14.934Z,86.60
2018-04-08T04:01:43.617Z,87.10
2018-04-08T04:04:12.120Z,86.20
2018-04-08T04:06:40.846Z,87.30
2018-04-08T04:09:09.794Z,87.90
2018-04-08T04:11:39.944Z,89.30
2018-04-08T04:14:08.580Z,89.30
2018-04-08T04:16:37.148Z,89.80
2018-04-08T04:19:24.347Z,89.40
2018-04-08T04:22:10.681Z,89.40
2018-04-08T04:28:06.211Z,89.00
2018-04-08T04:30:34.836Z,88.20
2018-04-08T04:33:03.523Z,88.10
2018-04-08T04:35:32.158Z,87.70
2018-04-08T04:38:00.740Z,87.70
2018-04-08T04:40:30.157Z,87.10
2018-04-08T04:42:58.908Z,87.00
2018-04-08T04:45:27.517Z,87.70
2018-04-08T04:47:56.101Z,87.30
2018-04-08T04:50:24.697Z,87.40
2018-04-08T04:52:54.297Z,87.60
2018-04-08T04:55:23.201Z,87.50
2018-04-08T04:57:52.113Z,87.80
2018-04-08T05:00:20.868Z,88.10
2018-04-08T05:02:49.578Z,88.40
2018-04-08T05:05:18.123Z,88.50
2018-04-08T05:07:47.537Z,88.90
2018-04-08T05:10:16.802Z,89.10
2018-04-08T05:12:45.398Z,89.00
2018-04-08T05:15:14.147Z,88.90
2018-04-08T05:17:42.771Z,88.60
2018-04-08T05:20:12.315Z,88.20
2018-04-08T05:22:40.937Z,88.20
2018-04-08T05:25:09.590Z,88.60
2018-04-08T05:27:39.107Z,88.40
2018-04-08T05:30:08.294Z,87.80
2018-04-08T05:32:36.868Z,87.40
2018-04-08T05:35:06.187Z,87.50
2018-04-08T05:37:34.830Z,87.50
2018-04-08T05:40:03.582Z,87.80
2018-04-08T05:42:32.909Z,86.70
2018-04-08T05:45:01.709Z,86.70
2018-04-08T05:47:30.326Z,86.10
2018-04-08T05:50:00.075Z,85.10
2018-04-08T05:52:29.533Z,85.90
2018-04-08T05:54:58.092Z,85.90
2018-04-08T05:57:26.939Z,86.00
2018-04-08T05:59:56.263Z,85.20
2018-04-08T06:02:25.283Z,83.90
2018-04-08T06:04:53.947Z,81.10
2018-04-08T06:07:23.374Z,76.10
2018-04-08T06:09:52.942Z,76.10
2018-04-08T06:12:21.591Z,75.60
2018-04-08T06:14:50.358Z,75.30
2018-04-08T06:17:19.222Z,74.70
2018-04-08T06:19:48.602Z,74.50
2018-04-08T06:22:17.139Z,72.90
2018-04-08T06:24:45.886Z,72.10
2018-04-08T06:27:14.552Z,70.70
2018-04-08T06:29:43.166Z,70.40
2018-04-08T06:32:11.742Z,70.90
2018-04-08T06:34:40.433Z,72.00
2018-04-08T06:37:09.184Z,71.10
2018-04-08T06:39:38.609Z,69.40
2018-04-08T06:42:07.330Z,68.60
2018-04-08T06:44:36.868Z,67.80
2018-04-08T06:47:06.639Z,66.00
2018-04-08T06:49:36.195Z,66.00
2018-04-08T06:52:06.958Z,64.20
2018-04-08T06:54:36.994Z,63.20
2018-04-08T06:57:06.394Z,64.20
2018-04-08T06:59:35.789Z,63.30
2018-04-08T07:02:04.405Z,63.50
2018-04-08T07:04:33.879Z,62.90
2018-04-08T07:07:03.381Z,62.10
2018-04-08T07:09:31.920Z,62.70
2018-04-08T07:12:01.381Z,63.30
2018-04-08T07:14:30.361Z,63.30
2018-04-08T07:16:59.779Z,62.70
2018-04-08T07:19:29.318Z,60.80
2018-04-08T07:21:58.012Z,60.70
2018-04-08T07:24:27.445Z,59.60
2018-04-08T07:26:56.239Z,59.50
2018-04-08T07:29:26.721Z,59.00
2018-04-08T07:31:55.485Z,59.50
2018-04-08T07:34:24.973Z,57.00
2018-04-08T07:36:53.641Z,56.50
2018-04-08T07:39:22.344Z,56.00
2018-04-08T07:41:51.728Z,54.10
2018-04-08T07:44:21.240Z,54.00
2018-04-08T07:46:50.781Z,54.10
2018-04-08T07:49:19.919Z,53.70
2018-04-08T07:51:49.208Z,52.20
2018-04-08T07:54:17.948Z,51.20
2018-04-08T07:56:47.051Z,51.10
2018-04-08T07:59:15.827Z,50.40
2018-04-08T08:01:44.461Z,48.80
2018-04-08T08:04:13.150Z,48.00
2018-04-08T08:06:41.817Z,45.30
2018-04-08T08:09:10.529Z,46.10
2018-04-08T08:11:39.102Z,45.00
2018-04-08T08:14:07.653Z,42.50
2018-04-08T08:16:36.852Z,42.20
2018-04-08T08:19:06.186Z,41.60
2018-04-08T08:21:34.863Z,41.50
2018-04-08T08:24:04.411Z,41.30
2018-04-08T08:26:33.080Z,41.30
2018-04-08T08:29:02.617Z,39.30
2018-04-08T08:31:31.276Z,39.20
2018-04-08T08:33:59.831Z,38.70
2018-04-08T08:36:29.197Z,37.70
2018-04-08T08:38:57.835Z,37.70
2018-04-08T08:41:26.384Z,36.80
2018-04-08T08:43:55.786Z,37.30
2018-04-08T08:46:26.919Z,38.40
2018-04-08T08:48:56.074Z,38.40
2018-04-08T08:51:25.501Z,35.80
2018-04-08T08:53:54.363Z,36.40
2018-04-08T08:56:23.142Z,34.90
2018-04-08T08:58:52.056Z,32.70
2018-04-08T09:01:20.863Z,30.70
2018-04-08T09:03:49.784Z,31.90
2018-04-08T09:06:18.854Z,30.40
2018-04-08T09:08:48.647Z,29.80
2018-04-08T09:11:17.480Z,29.80
2018-04-08T09:13:46.443Z,29.90
2018-04-08T09:16:16.498Z,30.20
2018-04-08T09:18:47.870Z,31.40
2018-04-08T09:21:28.403Z,31.10
2018-04-08T09:23:57.867Z,29.60
2018-04-08T09:26:26.905Z,29.70
2018-04-08T09:28:56.397Z,31.40
2018-04-08T09:31:26.424Z,31.30
2018-04-08T09:33:56.464Z,31.30
2018-04-08T09:36:25.460Z,30.50
2018-04-08T09:38:55.407Z,28.70
2018-04-08T09:41:25.377Z,28.70
2018-04-08T09:43:54.175Z,29.40
2018-04-08T09:46:22.874Z,25.70
2018-04-08T09:48:51.667Z,23.40
2018-04-08T09:51:20.483Z,26.80
2018-04-08T09:53:49.186Z,24.80
2018-04-08T09:56:18.014Z,25.80
2018-04-08T09:58:49.860Z,23.10
2018-04-08T10:01:25.171Z,24.20
2018-04-08T10:03:55.444Z,24.30
2018-04-08T10:06:25.055Z,23.30
2018-04-08T10:08:53.842Z,23.30
2018-04-08T10:11:22.621Z,24.20
2018-04-08T10:13:51.649Z,22.40
2018-04-08T10:16:20.407Z,21.90
2018-04-08T10:18:50.002Z,22.10
2018-04-08T10:21:18.735Z,22.00
2018-04-08T10:23:47.505Z,24.30
2018-04-08T10:26:16.856Z,23.00
2018-04-08T10:28:46.887Z,23.70
2018-04-08T10:31:15.508Z,23.70
2018-04-08T10:33:44.178Z,22.60
2018-04-08T10:36:12.878Z,23.80
2018-04-08T10:38:41.572Z,24.30
2018-04-08T10:41:10.410Z,22.30
2018-04-08T10:43:39.089Z,23.70
2018-04-08T10:46:07.693Z,23.10
2018-04-08T10:48:36.316Z,23.60
2018-04-08T10:51:04.961Z,24.50
2018-04-08T10:53:33.581Z,24.60
2018-04-08T10:56:02.292Z,25.60
2018-04-08T10:58:31.394Z,26.10
2018-04-08T11:01:00.624Z,27.00
2018-04-08T11:03:29.460Z,27.00
2018-04-08T11:05:59.219Z,24.90
2018-04-08T11:08:27.870Z,24.90
2018-04-08T11:10:56.539Z,26.20
2018-04-08T11:13:25.970Z,24.00
2018-04-08T11:15:55.628Z,24.00
2018-04-08T11:18:25.335Z,24.00
2018-04-08T11:20:54.036Z,24.00
2018-04-08T11:23:22.741Z,24.80
2018-04-08T11:25:52.672Z,23.60
2018-04-08T11:28:22.024Z,24.50
2018-04-08T11:30:50.950Z,24.40
2018-04-08T11:33:19.562Z,25.40
2018-04-08T11:35:48.281Z,26.40
2018-04-08T11:38:17.703Z,23.60
2018-04-08T11:40:47.070Z,24.60
2018-04-08T11:43:15.842Z,24.60
2018-04-08T11:45:46.158Z,23.00
2018-04-08T11:48:14.769Z,23.00
2018-04-08T11:50:43.401Z,22.60
2018-04-08T11:53:12.177Z,22.40
2018-04-08T11:55:40.974Z,22.60
2018-04-08T11:58:10.240Z,22.50
2018-04-08T12:00:40.624Z,23.00
2018-04-08T12:03:09.603Z,23.00
2018-04-08T12:05:38.446Z,25.70
2018-04-08T12:08:07.013Z,25.80
2018-04-08T12:10:36.646Z,24.80
2018-04-08T12:13:05.380Z,24.80
2018-04-08T12:15:34.029Z,23.30
2018-04-08T12:18:03.922Z,23.30
2018-04-08T12:20:32.553Z,24.60
2018-04-08T12:23:01.481Z,25.30
2018-04-08T12:25:31.080Z,24.10
2018-04-08T12:28:00.274Z,24.10
2018-04-08T12:30:29.845Z,23.40
2018-04-08T12:32:58.992Z,23.80
2018-04-08T12:35:27.873Z,25.10
2018-04-08T12:37:56.504Z,24.90
2018-04-08T12:40:26.815Z,25.50
2018-04-08T12:42:55.785Z,25.50
2018-04-08T12:45:24.636Z,24.90
2018-04-08T12:47:53.398Z,24.10
2018-04-08T12:50:22.266Z,25.20
2018-04-08T12:52:51.144Z,25.80
2018-04-08T12:55:19.824Z,26.60
2018-04-08T12:57:48.954Z,25.50
2018-04-08T13:00:18.203Z,24.80
2018-04-08T13:02:47.497Z,25.50
2018-04-08T13:05:16.535Z,25.40
2018-04-08T13:07:45.287Z,26.00
2018-04-08T13:10:14.042Z,26.50
2018-04-08T13:12:44.120Z,27.40
2018-04-08T13:15:12.849Z,26.40
2018-04-08T13:17:42.161Z,24.20
2018-04-08T13:20:10.962Z,24.10
2018-04-08T13:22:39.655Z,23.20
2018-04-08T13:25:08.426Z,22.70
2018-04-08T13:27:37.155Z,22.80
2018-04-08T13:30:06.364Z,22.70
2018-04-08T13:32:35.409Z,23.10
2018-04-08T13:35:04.159Z,22.60
2018-04-08T13:37:33.572Z,22.40
2018-04-08T13:40:02.234Z,22.40
2018-04-08T13:42:30.849Z,22.20
2018-04-08T13:44:59.682Z,24.50
2018-04-08T13:47:28.340Z,25.20
2018-04-08T13:49:57.047Z,24.90
2018-04-08T13:52:25.760Z,24.40
2018-04-08T13:54:54.526Z,24.90
2018-04-08T13:57:23.947Z,23.10
2018-04-08T13:59:54.669Z,22.00
2018-04-08T14:02:23.561Z,22.00
2018-04-08T14:04:52.547Z,23.50
2018-04-08T14:07:21.158Z,23.10
2018-04-08T14:09:49.862Z,23.20
2018-04-08T14:12:19.298Z,22.90
2018-04-08T14:14:48.000Z,22.80
2018-04-08T14:17:17.632Z,23.30
2018-04-08T14:19:46.291Z,23.90
2018-04-08T14:22:14.924Z,24.10
2018-04-08T14:24:44.360Z,24.20
2018-04-08T14:27:13.695Z,25.00
2018-04-08T14:29:42.425Z,25.00
2018-04-08T14:32:11.460Z,25.00
2018-04-08T14:34:40.760Z,25.40
2018-04-08T14:37:09.736Z,25.50
2018-04-08T14:39:38.285Z,25.40
2018-04-08T14:42:07.010Z,24.50
2018-04-08T14:44:35.655Z,24.40
2018-04-08T14:47:05.216Z,24.40
2018-04-08T14:49:34.986Z,24.60
2018-04-08T14:52:03.620Z,24.60
2018-04-08T14:54:32.982Z,25.20
2018-04-08T14:57:01.894Z,25.20
2018-04-08T14:59:30.760Z,25.60
2018-04-08T15:02:00.626Z,27.20
2018-04-08T15:04:29.924Z,27.20
2018-04-08T15:06:58.892Z,27.30
2018-04-08T15:09:27.799Z,27.50
2018-04-08T15:11:56.787Z,28.00
2018-04-08T15:14:25.908Z,27.80
2018-04-08T15:16:55.306Z,28.10
2018-04-08T15:19:24.254Z,29.00
2018-04-08T15:21:53.338Z,28.20
2018-04-08T15:24:22.576Z,28.30
2018-04-08T15:26:51.518Z,28.30
2018-04-08T15:29:20.478Z,28.30
2018-04-08T15:31:50.381Z,28.30
2018-04-08T15:34:21.071Z,28.10
2018-04-08T15:36:50.174Z,28.10
2018-04-08T15:39:19.160Z,29.20
2018-04-08T15:41:48.158Z,30.10
2018-04-08T15:44:17.320Z,29.40
2018-04-08T15:46:46.668Z,29.30
2018-04-08T15:49:16.383Z,28.00
2018-04-08T15:51:45.477Z,27.50
2018-04-08T15:54:15.301Z,26.70
2018-04-08T15:56:45.417Z,26.80
2018-04-08T15:59:15.054Z,26.80
2018-04-08T16:01:44.425Z,27.00
2018-04-08T16:04:13.593Z,27.50
2018-04-08T16:06:43.237Z,27.80
2018-04-08T16:09:13.370Z,28.20
2018-04-08T16:11:42.402Z,28.20
2018-04-08T16:14:12.281Z,27.70
2018-04-08T16:16:41.709Z,27.70
2018-04-08T16:19:10.841Z,27.90
2018-04-08T16:21:39.975Z,28.20
2018-04-08T16:24:09.500Z,28.10
2018-04-08T16:26:40.256Z,28.20
2018-04-08T16:29:09.469Z,28.20
2018-04-08T16:31:38.731Z,28.30
2018-04-08T16:34:08.181Z,28.50
2018-04-08T16:36:37.246Z,28.80
2018-04-08T16:39:06.546Z,29.60
2018-04-08T16:41:35.991Z,29.90
2018-04-08T16:44:05.045Z,30.10
2018-04-08T16:46:34.206Z,30.20
2018-04-08T16:49:03.552Z,30.40
2018-04-08T16:51:32.963Z,30.90
2018-04-08T16:54:03.733Z,31.60
2018-04-08T16:56:33.396Z,32.20
2018-04-08T16:59:02.566Z,32.80
2018-04-08T17:01:32.496Z,33.60
2018-04-08T17:04:01.541Z,33.60
2018-04-08T17:06:30.623Z,33.60
2018-04-08T17:08:59.847Z,33.10
2018-04-08T17:11:28.981Z,33.50
2018-04-08T17:13:58.794Z,36.40
2018-04-08T17:16:27.985Z,36.40
2018-04-08T17:18:58.942Z,35.40
2018-04-08T17:21:28.761Z,35.30
2018-04-08T17:23:57.834Z,35.00
2018-04-08T17:26:26.831Z,36.10
2018-04-08T17:28:56.097Z,39.30
2018-04-08T17:31:25.616Z,41.60
2018-04-08T17:33:54.726Z,40.30
2018-04-08T17:36:23.729Z,41.00
2018-04-08T17:38:54.679Z,41.60
2018-04-08T17:41:24.550Z,41.30
2018-04-08T17:43:54.336Z,41.30
2018-04-08T17:46:24.996Z,40.60
2018-04-08T17:48:54.090Z,42.20
2018-04-08T17:51:23.072Z,42.70
2018-04-08T17:53:53.365Z,43.90
2018-04-08T17:56:22.340Z,44.80
2018-04-08T17:58:51.615Z,45.70
2018-04-08T18:01:21.422Z,47.10
2018-04-08T18:03:50.503Z,47.10
2018-04-08T18:06:19.799Z,47.30
2018-04-08T18:08:48.915Z,47.70
2018-04-08T18:11:19.226Z,47.10
2018-04-08T18:13:49.983Z,46.80
2018-04-08T18:16:20.153Z,47.70
2018-04-08T18:18:49.157Z,47.50
2018-04-08T18:21:20.018Z,48.10
2018-04-08T18:23:50.113Z,48.50
2018-04-08T18:26:19.340Z,47.50
2018-04-08T18:28:48.401Z,47.90
2018-04-08T18:31:17.644Z,48.00
2018-04-08T18:33:47.101Z,48.20
2018-04-08T18:36:17.068Z,48.80
2018-04-08T18:38:46.683Z,48.80
2018-04-08T18:41:17.230Z,49.50
2018-04-08T18:43:48.076Z,49.80
2018-04-08T18:46:17.346Z,49.70
2018-04-08T18:48:46.836Z,50.50
2018-04-08T18:51:17.095Z,51.80
2018-04-08T18:53:46.142Z,51.80
2018-04-08T18:56:15.875Z,52.00
2018-04-08T18:58:45.456Z,52.50
2018-04-08T19:01:14.928Z,52.80
2018-04-08T19:03:45.476Z,53.30
2018-04-08T19:06:14.764Z,53.80
2018-04-08T19:08:43.831Z,54.40
2018-04-08T19:11:12.961Z,54.40
2018-04-08T19:13:42.761Z,54.00
2018-04-08T19:16:11.996Z,54.00
2018-04-08T19:18:44.709Z,54.20
2018-04-08T19:21:13.792Z,54.80
2018-04-08T19:23:44.167Z,55.60
2018-04-08T19:26:14.058Z,56.40
2018-04-08T19:28:44.389Z,56.20
2018-04-08T19:31:13.568Z,58.30
2018-04-08T19:33:42.554Z,61.30
2018-04-08T19:36:11.680Z,63.40
2018-04-08T19:38:40.988Z,62.90
2018-04-08T19:41:10.593Z,62.60
2018-04-08T19:43:39.663Z,62.00
2018-04-08T19:46:21.722Z,60.90
2018-04-08T19:49:03.623Z,59.80
2018-04-08T19:51:33.437Z,60.30
2018-04-08T19:54:03.026Z,59.40
2018-04-08T19:56:34.007Z,59.90
2018-04-08T19:59:04.633Z,60.80
2018-04-08T20:01:35.103Z,60.80
2018-04-08T20:04:04.269Z,62.00
2018-04-08T20:06:34.772Z,62.10
2018-04-08T20:09:05.515Z,60.50
2018-04-08T20:11:35.305Z,60.30
2018-04-08T20:14:05.790Z,60.30
2018-04-08T20:16:35.691Z,61.60
2018-04-08T20:19:05.448Z,60.70
2018-04-08T20:21:34.835Z,61.10
2018-04-08T20:24:04.853Z,60.80
2018-04-08T20:26:34.456Z,60.80
2018-04-08T20:29:05.004Z,61.70
2018-04-08T20:31:34.126Z,61.50
2018-04-08T20:34:03.835Z,60.60
2018-04-08T20:36:32.845Z,60.60
2018-04-08T20:39:02.625Z,60.60
2018-04-08T20:41:31.703Z,60.40
2018-04-08T20:44:02.543Z,60.00
2018-04-08T20:46:31.631Z,59.80
2018-04-08T20:49:02.140Z,62.40
2018-04-08T20:51:33.203Z,62.30
2018-04-08T20:54:02.508Z,62.90
2018-04-08T20:56:31.594Z,63.40
2018-04-08T20:59:00.610Z,61.20
2018-04-08T21:01:31.030Z,59.50
2018-04-08T21:04:00.791Z,59.50
2018-04-08T21:06:29.857Z,60.10
2018-04-08T21:08:58.806Z,62.40
2018-04-08T21:11:27.868Z,64.80
2018-04-08T21:13:58.053Z,67.80
2018-04-08T21:16:27.421Z,67.80
2018-04-08T21:18:57.192Z,68.40
2018-04-08T21:21:26.063Z,67.90
2018-04-08T21:23:55.718Z,67.50
2018-04-08T21:26:24.737Z,67.40
2018-04-08T21:28:53.837Z,67.80
2018-04-08T21:31:22.809Z,67.80
2018-04-08T21:33:51.806Z,67.70
2018-04-08T21:36:21.846Z,67.70
2018-04-08T21:38:50.817Z,67.20
2018-04-08T21:41:20.542Z,66.30
2018-04-08T21:43:50.237Z,66.30
2018-04-08T21:46:19.597Z,66.00
2018-04-08T21:48:48.750Z,65.60
2018-04-08T21:51:17.961Z,65.80
2018-04-08T21:53:46.771Z,66.90
2018-04-08T21:56:15.539Z,71.70
2018-04-08T21:58:45.023Z,73.50
2018-04-08T22:01:15.886Z,72.70
2018-04-08T22:03:44.631Z,72.40
2018-04-08T22:06:14.107Z,70.60
2018-04-08T22:08:44.052Z,70.50
2018-04-08T22:11:13.335Z,70.20
2018-04-08T22:13:42.775Z,70.40
2018-04-08T22:16:11.737Z,70.10
2018-04-08T22:18:40.456Z,70.00
2018-04-08T22:21:09.866Z,69.70
2018-04-08T22:23:38.527Z,71.00
2018-04-08T22:26:07.751Z,69.90
2018-04-08T22:28:36.559Z,70.80
2018-04-08T22:31:05.305Z,71.70
2018-04-08T22:33:33.944Z,72.10
2018-04-08T22:36:03.367Z,71.00
2018-04-08T22:38:32.899Z,71.10
2018-04-08T22:41:01.775Z,70.20
2018-04-08T22:43:30.972Z,69.30
2018-04-08T22:46:00.132Z,69.00
2018-04-08T22:48:29.609Z,69.20
2018-04-08T22:50:58.354Z,69.10
2018-04-08T22:53:27.129Z,69.00
2018-04-08T22:55:55.902Z,68.90
2018-04-08T22:58:24.493Z,68.60
2018-04-08T23:00:53.962Z,68.10
2018-04-08T23:03:22.710Z,68.00
2018-04-08T23:05:51.716Z,68.40
2018-04-08T23:08:20.282Z,68.80
2018-04-08T23:10:48.962Z,69.10
2018-04-08T23:13:18.843Z,69.40
2018-04-08T23:15:48.195Z,69.40
2018-04-08T23:18:17.628Z,68.90
2018-04-08T23:20:47.046Z,70.30
2018-04-08T23:23:15.720Z,70.30
2018-04-08T23:25:44.424Z,74.20
2018-04-08T23:28:13.180Z,75.50
2018-04-08T23:30:42.653Z,75.20
2018-04-08T23:33:11.324Z,75.00
2018-04-08T23:35:40.006Z,75.40
2018-04-08T23:38:08.615Z,75.40
2018-04-08T23:40:37.985Z,74.60
2018-04-08T23:43:06.915Z,74.60
2018-04-08T23:45:36.842Z,74.20
2018-04-08T23:48:05.485Z,73.60
2018-04-08T23:50:34.058Z,73.40
2018-04-08T23:53:02.701Z,73.10
2018-04-08T23:55:32.090Z,72.90
2018-04-08T23:58:00.766Z,72.20
